createdAt,value
2023-01-19T00:01:48.587Z,7.90
2023-01-19T00:04:18.437Z,10.10
2023-01-19T00:06:47.890Z,8.25
2023-01-19T00:09:17.310Z,8.77
2023-01-19T00:11:46.781Z,7.95
2023-01-19T00:14:16.176Z,8.38
2023-01-19T00:16:46.932Z,7.57
2023-01-19T00:19:16.546Z,8.55
2023-01-19T00:21:45.973Z,8.48
2023-01-19T00:24:15.742Z,10.55
2023-01-19T00:26:45.208Z,10.05
2023-01-19T00:29:16.365Z,9.65
2023-01-19T00:31:47.214Z,9.35
2023-01-19T00:34:16.942Z,9.43
2023-01-19T00:36:46.376Z,10.55
2023-01-19T00:39:16.172Z,10.73
2023-01-19T00:42:03.148Z,9.73
2023-01-19T00:44:32.530Z,13.05
2023-01-19T00:47:04.824Z,10.82
2023-01-19T00:49:34.252Z,10.70
2023-01-19T00:52:03.659Z,9.65
2023-01-19T00:54:33.166Z,11.63
2023-01-19T00:57:03.410Z,10.63
2023-01-19T00:59:32.837Z,10.32
2023-01-19T01:02:03.753Z,10.23
2023-01-19T01:04:33.654Z,8.77
2023-01-19T01:07:03.044Z,7.82
2023-01-19T01:09:33.082Z,7.78
2023-01-19T01:12:02.488Z,9.45
2023-01-19T01:14:31.935Z,9.68
2023-01-19T01:17:02.820Z,8.18
2023-01-19T01:19:32.577Z,7.50
2023-01-19T01:22:05.955Z,8.68
2023-01-19T01:27:05.230Z,8.20
2023-01-19T01:29:35.389Z,8.52
2023-01-19T01:32:06.402Z,7.45
2023-01-19T01:34:35.874Z,6.43
2023-01-19T01:37:08.255Z,7.57
2023-01-19T01:39:38.554Z,6.83
2023-01-19T01:42:19.995Z,7.43
2023-01-19T01:44:53.945Z,6.55
2023-01-19T01:47:33.985Z,7.50
2023-01-19T01:50:12.497Z,7.85
2023-01-19T01:53:06.145Z,7.53
2023-01-19T01:55:42.803Z,7.30
2023-01-19T01:58:13.886Z,7.68
2023-01-19T02:01:01.803Z,7.65
2023-01-19T02:03:38.816Z,7.53
2023-01-19T02:06:10.426Z,8.00
2023-01-19T02:09:06.308Z,8.40
2023-01-19T02:11:54.709Z,7.78
2023-01-19T02:14:24.295Z,7.90
2023-01-19T02:16:56.301Z,7.80
2023-01-19T02:19:37.623Z,7.97
2023-01-19T02:22:17.791Z,9.02
2023-01-19T02:24:49.802Z,8.90
2023-01-19T02:27:20.288Z,8.45
2023-01-19T02:29:49.879Z,8.23
2023-01-19T02:32:19.386Z,9.55
2023-01-19T02:34:48.845Z,9.20
2023-01-19T02:37:19.583Z,8.55
2023-01-19T02:39:55.173Z,9.93
2023-01-19T02:42:30.959Z,9.65
2023-01-19T02:45:00.582Z,8.23
2023-01-19T02:47:40.168Z,10.05
2023-01-19T02:50:50.561Z,9.38
2023-01-19T02:54:12.201Z,9.13
2023-01-19T02:57:21.265Z,9.30
2023-01-19T03:00:11.931Z,9.98
2023-01-19T03:03:00.052Z,9.65
2023-01-19T03:05:50.929Z,10.25
2023-01-19T03:08:34.272Z,9.25
2023-01-19T03:11:06.747Z,9.23
2023-01-19T03:13:48.670Z,9.10
2023-01-19T03:16:23.661Z,10.27
2023-01-19T03:18:57.144Z,10.48
2023-01-19T03:21:29.509Z,10.18
2023-01-19T03:24:04.245Z,10.00
2023-01-19T03:26:40.412Z,10.98
2023-01-19T03:29:14.887Z,9.43
2023-01-19T03:31:48.910Z,10.73
2023-01-19T03:34:22.024Z,10.80
2023-01-19T03:36:57.119Z,10.32
2023-01-19T03:39:28.948Z,9.70
2023-01-19T03:42:02.997Z,10.10
2023-01-19T03:44:37.741Z,10.23
2023-01-19T03:47:11.292Z,10.90
2023-01-19T03:49:42.989Z,10.82
2023-01-19T03:52:14.103Z,10.15
2023-01-19T03:54:43.878Z,10.90
2023-01-19T03:57:13.439Z,10.57
2023-01-19T03:59:44.264Z,11.40
2023-01-19T04:02:13.746Z,10.45
2023-01-19T04:04:43.519Z,12.45
2023-01-19T04:07:13.206Z,11.25
2023-01-19T04:09:42.909Z,10.60
2023-01-19T04:12:12.292Z,10.82
2023-01-19T04:14:43.147Z,11.52
2023-01-19T04:17:12.569Z,10.93
2023-01-19T04:19:43.160Z,12.50
2023-01-19T04:22:12.713Z,10.75
2023-01-19T04:24:42.169Z,12.20
2023-01-19T04:27:12.593Z,11.60
2023-01-19T04:29:43.433Z,11.15
2023-01-19T04:32:15.084Z,10.93
2023-01-19T04:34:44.588Z,10.55
2023-01-19T04:37:14.180Z,11.18
2023-01-19T04:39:43.516Z,12.05
2023-01-19T04:42:12.924Z,11.15
2023-01-19T04:44:43.880Z,11.52
2023-01-19T04:47:13.300Z,12.63
2023-01-19T04:49:42.779Z,11.85
2023-01-19T04:52:12.282Z,11.40
2023-01-19T04:54:41.756Z,11.52
2023-01-19T04:57:11.183Z,11.90
2023-01-19T04:59:40.601Z,12.48
2023-01-19T05:02:11.916Z,12.85
2023-01-19T05:04:41.421Z,13.38
2023-01-19T05:07:11.111Z,13.63
2023-01-19T05:09:40.693Z,14.27
2023-01-19T05:12:10.272Z,14.10
2023-01-19T05:14:39.693Z,13.25
2023-01-19T05:17:09.167Z,13.45
2023-01-19T05:19:39.939Z,13.05
2023-01-19T05:22:09.526Z,12.43
2023-01-19T05:24:38.931Z,12.70
2023-01-19T05:27:08.490Z,12.70
2023-01-19T05:29:37.912Z,13.45
2023-01-19T05:32:07.418Z,14.25
2023-01-19T05:34:37.009Z,14.10
2023-01-19T05:37:07.851Z,15.25
2023-01-19T05:39:37.298Z,14.70
2023-01-19T05:42:07.418Z,14.25
2023-01-19T05:44:36.902Z,13.45
2023-01-19T05:47:06.577Z,13.05
2023-01-19T05:49:36.397Z,13.80
2023-01-19T05:52:07.617Z,13.07
2023-01-19T05:54:37.133Z,14.05
2023-01-19T05:57:06.694Z,13.95
2023-01-19T05:59:36.568Z,14.63
2023-01-19T06:02:06.213Z,14.75
2023-01-19T06:04:35.732Z,14.88
2023-01-19T06:07:07.569Z,14.00
2023-01-19T06:09:37.018Z,15.13
2023-01-19T06:12:08.036Z,13.18
2023-01-19T06:14:38.024Z,13.10
2023-01-19T06:17:07.956Z,13.98
2023-01-19T06:19:37.424Z,14.77
2023-01-19T06:22:08.236Z,14.77
2023-01-19T06:24:37.659Z,14.23
2023-01-19T06:27:07.364Z,13.25
2023-01-19T06:29:36.805Z,15.02
2023-01-19T06:32:07.552Z,13.13
2023-01-19T06:34:36.945Z,13.50
2023-01-19T06:37:07.698Z,14.68
2023-01-19T06:39:37.953Z,13.88
2023-01-19T06:42:07.621Z,14.02
2023-01-19T06:44:37.078Z,14.60
2023-01-19T06:47:15.369Z,14.38
2023-01-19T06:49:45.636Z,14.80
2023-01-19T06:52:18.282Z,14.30
2023-01-19T06:54:48.216Z,13.23
2023-01-19T06:57:19.175Z,13.77
2023-01-19T06:59:48.970Z,14.48
2023-01-19T07:02:26.197Z,13.35
2023-01-19T07:04:57.984Z,14.60
2023-01-19T07:07:28.944Z,14.65
2023-01-19T07:09:58.347Z,15.05
2023-01-19T07:12:28.011Z,14.38
2023-01-19T07:14:57.366Z,13.25
2023-01-19T07:17:26.846Z,14.43
2023-01-19T07:19:56.198Z,14.13
2023-01-19T07:22:25.669Z,13.88
2023-01-19T07:24:56.739Z,15.73
2023-01-19T07:27:28.029Z,16.08
2023-01-19T07:29:57.555Z,13.98
2023-01-19T07:32:27.347Z,16.38
2023-01-19T07:34:56.766Z,16.80
2023-01-19T07:37:26.237Z,15.32
2023-01-19T07:39:57.048Z,14.32
2023-01-19T07:42:26.526Z,16.60
2023-01-19T07:44:55.902Z,15.27
2023-01-19T07:47:25.350Z,14.75
2023-01-19T07:49:54.730Z,14.40
2023-01-19T07:52:24.128Z,13.50
2023-01-19T07:54:53.521Z,15.10
2023-01-19T07:57:24.293Z,13.85
2023-01-19T07:59:53.760Z,11.93
2023-01-19T08:02:23.323Z,12.90
2023-01-19T08:04:52.943Z,14.75
2023-01-19T08:07:22.336Z,14.38
2023-01-19T08:09:51.681Z,14.38
2023-01-19T08:12:21.057Z,13.88
2023-01-19T08:14:52.049Z,14.45
2023-01-19T08:17:21.618Z,12.82
2023-01-19T08:19:51.130Z,12.40
2023-01-19T08:22:20.502Z,12.65
2023-01-19T08:24:50.517Z,13.00
2023-01-19T08:27:23.255Z,12.77
2023-01-19T08:29:54.704Z,12.90
2023-01-19T08:32:24.138Z,12.88
2023-01-19T08:34:53.545Z,13.88
2023-01-19T08:37:22.923Z,10.95
2023-01-19T08:39:53.867Z,12.68
2023-01-19T08:42:23.521Z,12.88
2023-01-19T08:44:58.191Z,13.18
2023-01-19T08:47:28.234Z,12.93
2023-01-19T08:49:57.658Z,12.38
2023-01-19T08:52:29.242Z,13.10
2023-01-19T08:54:58.585Z,10.82
2023-01-19T08:57:29.106Z,10.90
2023-01-19T08:59:59.850Z,13.15
2023-01-19T09:02:29.746Z,11.45
2023-01-19T09:04:59.195Z,12.20
2023-01-19T09:07:29.843Z,11.40
2023-01-19T09:10:00.922Z,8.73
2023-01-19T09:12:30.441Z,11.43
2023-01-19T09:15:01.308Z,12.80
2023-01-19T09:17:30.796Z,10.63
2023-01-19T09:20:00.301Z,10.85
2023-01-19T09:22:30.021Z,10.95
2023-01-19T09:24:59.907Z,11.07
2023-01-19T09:27:29.285Z,10.50
2023-01-19T09:30:00.134Z,11.57
2023-01-19T09:32:29.527Z,10.32
2023-01-19T09:34:59.010Z,9.50
2023-01-19T09:37:28.396Z,10.50
2023-01-19T09:39:57.846Z,11.80
2023-01-19T09:42:39.522Z,10.52
2023-01-19T09:45:20.583Z,8.88
2023-01-19T09:47:51.984Z,9.48
2023-01-19T09:50:28.648Z,10.60
2023-01-19T09:53:07.275Z,10.63
2023-01-19T09:55:36.727Z,9.70
2023-01-19T09:58:12.573Z,8.73
2023-01-19T10:00:47.583Z,8.25
2023-01-19T10:03:20.554Z,9.10
2023-01-19T10:05:56.839Z,10.18
2023-01-19T10:08:40.858Z,10.57
2023-01-19T10:11:41.833Z,8.77
2023-01-19T10:14:29.343Z,8.25
2023-01-19T10:17:14.931Z,8.30
2023-01-19T10:19:50.668Z,7.82
2023-01-19T10:22:25.512Z,8.82
2023-01-19T10:25:00.514Z,7.82
2023-01-19T10:27:34.207Z,8.80
2023-01-19T10:30:04.282Z,8.18
2023-01-19T10:32:36.854Z,8.23
2023-01-19T10:35:21.838Z,8.10
2023-01-19T10:37:53.028Z,7.68
2023-01-19T10:40:33.928Z,8.30
2023-01-19T10:43:38.201Z,7.35
2023-01-19T10:46:18.996Z,7.75
2023-01-19T10:48:54.685Z,6.60
2023-01-19T10:51:24.380Z,7.03
2023-01-19T10:54:04.062Z,6.78
2023-01-19T10:56:37.306Z,7.15
2023-01-19T10:59:10.586Z,7.88
2023-01-19T11:01:40.045Z,6.47
2023-01-19T11:04:30.565Z,6.22
2023-01-19T11:07:19.126Z,6.07
2023-01-19T11:09:49.407Z,5.72
2023-01-19T11:12:22.577Z,5.30
2023-01-19T11:14:53.823Z,5.95
2023-01-19T11:17:26.787Z,5.72
2023-01-19T11:20:03.657Z,5.20
2023-01-19T11:22:34.794Z,5.50
2023-01-19T11:25:07.181Z,4.20
2023-01-19T11:27:38.354Z,5.45
2023-01-19T11:30:21.319Z,6.47
2023-01-19T11:32:50.970Z,5.47
2023-01-19T11:35:42.742Z,5.70
2023-01-19T11:38:23.134Z,5.22
2023-01-19T11:40:56.965Z,5.32
2023-01-19T11:43:43.560Z,5.32
2023-01-19T11:46:18.797Z,5.80
2023-01-19T11:48:57.341Z,5.32
2023-01-19T11:51:36.775Z,5.60
2023-01-19T11:54:21.110Z,5.57
2023-01-19T11:56:52.175Z,5.70
2023-01-19T11:59:24.825Z,5.63
2023-01-19T12:01:59.077Z,4.93
2023-01-19T12:04:36.067Z,4.95
2023-01-19T12:07:10.649Z,6.20
2023-01-19T12:09:45.347Z,5.97
2023-01-19T12:12:28.718Z,6.32
2023-01-19T12:15:05.479Z,6.10
2023-01-19T12:17:41.057Z,5.15
2023-01-19T12:20:26.537Z,6.22
2023-01-19T12:23:18.888Z,5.20
2023-01-19T12:26:11.355Z,5.50
2023-01-19T12:28:45.697Z,5.82
2023-01-19T12:31:19.011Z,5.43
2023-01-19T12:33:49.236Z,5.18
2023-01-19T12:36:40.273Z,5.93
2023-01-19T12:39:21.059Z,4.18
2023-01-19T12:42:13.099Z,5.53
2023-01-19T12:44:44.046Z,4.22
2023-01-19T12:47:24.264Z,4.80
2023-01-19T12:50:03.167Z,5.45
2023-01-19T12:52:36.117Z,4.50
2023-01-19T12:55:24.424Z,4.78
2023-01-19T12:58:03.989Z,4.60
2023-01-19T13:00:40.152Z,4.65
2023-01-19T13:03:59.611Z,5.35
2023-01-19T13:07:10.418Z,4.55
2023-01-19T13:09:42.540Z,4.38
2023-01-19T13:12:25.968Z,4.88
2023-01-19T13:15:34.246Z,4.07
2023-01-19T13:18:04.574Z,4.70
2023-01-19T13:20:45.713Z,4.40
2023-01-19T13:23:26.257Z,5.40
2023-01-19T13:26:05.692Z,4.38
2023-01-19T13:28:44.468Z,5.53
2023-01-19T13:31:15.355Z,4.97
2023-01-19T13:33:51.832Z,4.25
2023-01-19T13:36:29.149Z,4.05
2023-01-19T13:39:04.658Z,4.07
2023-01-19T13:41:40.384Z,3.53
2023-01-19T13:44:21.375Z,3.90
2023-01-19T13:46:53.658Z,5.22
2023-01-19T13:49:31.496Z,3.92
2023-01-19T13:52:17.775Z,4.05
2023-01-19T13:54:53.168Z,3.75
2023-01-19T13:57:26.553Z,4.25
2023-01-19T14:00:18.900Z,3.90
2023-01-19T14:03:01.713Z,4.68
2023-01-19T14:05:52.651Z,4.60
2023-01-19T14:13:01.339Z,5.55
2023-01-19T14:15:33.752Z,5.55
2023-01-19T14:18:23.115Z,4.60
2023-01-19T14:21:04.032Z,5.07
2023-01-19T14:23:48.436Z,5.25
2023-01-19T14:26:49.483Z,5.88
2023-01-19T14:29:28.874Z,4.97
2023-01-19T14:32:17.924Z,5.07
2023-01-19T14:34:51.088Z,4.97
2023-01-19T14:37:26.743Z,5.45
2023-01-19T14:40:04.648Z,6.65
2023-01-19T14:42:39.433Z,5.72
2023-01-19T14:45:21.012Z,5.68
2023-01-19T14:47:59.428Z,5.85
2023-01-19T14:50:33.030Z,4.95
2023-01-19T14:53:07.255Z,5.75
2023-01-19T14:55:45.486Z,5.20
2023-01-19T14:58:20.630Z,5.13
2023-01-19T15:00:55.567Z,5.82
2023-01-19T15:03:38.576Z,6.53
2023-01-19T15:06:14.737Z,4.68
2023-01-19T15:08:46.580Z,6.47
2023-01-19T15:11:24.016Z,6.32
2023-01-19T15:13:55.091Z,5.93
2023-01-19T15:16:25.584Z,6.55
2023-01-19T15:18:55.273Z,6.15
2023-01-19T15:21:26.711Z,6.35
2023-01-19T15:23:58.669Z,5.93
2023-01-19T15:26:28.927Z,6.10
2023-01-19T15:28:58.609Z,6.70
2023-01-19T15:31:28.356Z,6.25
2023-01-19T15:33:58.230Z,5.53
2023-01-19T15:36:27.773Z,6.13
2023-01-19T15:38:58.744Z,5.78
2023-01-19T15:41:30.880Z,5.90
2023-01-19T15:44:01.514Z,5.10
2023-01-19T15:46:31.155Z,5.70
2023-01-19T15:49:00.687Z,5.82
2023-01-19T15:51:30.395Z,6.13
2023-01-19T15:54:01.490Z,6.05
2023-01-19T15:56:32.786Z,7.90
2023-01-19T15:59:03.359Z,6.35
2023-01-19T16:02:43.453Z,5.38
2023-01-19T16:05:13.469Z,5.93
2023-01-19T16:07:43.348Z,6.15
2023-01-19T16:10:16.854Z,6.60
2023-01-19T16:12:47.822Z,5.38
2023-01-19T16:16:31.469Z,5.15
2023-01-19T16:19:03.382Z,6.82
2023-01-19T16:21:33.133Z,5.50
2023-01-19T16:24:02.837Z,6.35
2023-01-19T16:26:36.765Z,5.35
2023-01-19T16:29:10.699Z,6.13
2023-01-19T16:31:43.384Z,6.78
2023-01-19T16:34:13.501Z,6.10
2023-01-19T16:36:43.914Z,6.72
2023-01-19T16:39:16.495Z,6.45
2023-01-19T16:41:47.807Z,6.13
2023-01-19T16:44:18.627Z,6.85
2023-01-19T16:46:50.067Z,6.78
2023-01-19T16:49:24.027Z,7.20
2023-01-19T16:51:54.856Z,6.03
2023-01-19T16:54:26.676Z,6.25
2023-01-19T16:56:59.065Z,7.17
2023-01-19T16:59:29.364Z,5.43
2023-01-19T17:01:59.303Z,5.88
2023-01-19T17:04:29.692Z,6.20
2023-01-19T17:06:59.434Z,5.63
2023-01-19T17:09:29.186Z,6.35
2023-01-19T17:12:00.312Z,5.70
2023-01-19T17:14:30.153Z,6.78
2023-01-19T17:17:02.900Z,5.70
2023-01-19T17:22:46.465Z,7.40
2023-01-19T17:23:15.136Z,5.88
2023-01-19T17:25:44.880Z,5.93
2023-01-19T17:28:15.966Z,6.63
2023-01-19T17:30:45.642Z,7.22
2023-01-19T17:33:15.312Z,5.38
2023-01-19T17:35:46.852Z,6.60
2023-01-19T17:38:16.633Z,6.53
2023-01-19T17:40:46.292Z,7.50
2023-01-19T17:43:17.377Z,7.78
2023-01-19T17:45:47.146Z,8.38
2023-01-19T17:48:17.467Z,7.03
2023-01-19T17:50:47.197Z,6.72
2023-01-19T17:53:16.905Z,6.47
2023-01-19T17:55:46.735Z,5.95
2023-01-19T17:58:18.014Z,6.88
2023-01-19T18:00:47.862Z,7.55
2023-01-19T18:03:17.678Z,8.50
2023-01-19T18:05:55.137Z,9.02
2023-01-19T18:08:24.903Z,10.15
2023-01-19T18:10:55.685Z,9.00
2023-01-19T18:13:28.141Z,8.90
2023-01-19T18:16:01.599Z,8.95
2023-01-19T18:18:31.983Z,8.43
2023-01-19T18:21:03.641Z,9.40
2023-01-19T18:23:33.773Z,7.28
2023-01-19T18:26:08.086Z,6.43
2023-01-19T18:28:39.411Z,7.40
2023-01-19T18:31:11.163Z,7.03
2023-01-19T18:33:42.358Z,7.55
2023-01-19T18:36:12.673Z,7.07
2023-01-19T18:38:43.444Z,7.75
2023-01-19T18:41:15.731Z,7.47
2023-01-19T18:43:47.825Z,7.72
2023-01-19T18:46:18.456Z,6.63
2023-01-19T18:48:48.318Z,8.68
2023-01-19T18:51:18.830Z,8.02
2023-01-19T18:53:48.598Z,8.55
2023-01-19T18:56:18.579Z,8.07
2023-01-19T18:58:49.966Z,9.02
2023-01-19T19:01:24.802Z,8.77
2023-01-19T19:03:56.606Z,8.70
2023-01-19T19:06:28.004Z,6.70
2023-01-19T19:09:00.273Z,8.20
2023-01-19T19:11:30.441Z,7.38
2023-01-19T19:14:04.159Z,7.03
2023-01-19T19:16:36.642Z,7.43
2023-01-19T19:19:08.502Z,7.20
2023-01-19T19:21:38.196Z,7.18
2023-01-19T19:24:09.064Z,6.75
2023-01-19T19:26:38.830Z,6.45
2023-01-19T19:29:10.177Z,6.22
2023-01-19T19:31:40.283Z,6.72
2023-01-19T19:34:12.424Z,5.30
2023-01-19T19:36:42.379Z,6.53
2023-01-19T19:39:13.132Z,5.28
2023-01-19T19:41:42.874Z,7.00
2023-01-19T19:44:13.988Z,6.78
2023-01-19T19:46:43.691Z,7.07
2023-01-19T19:49:13.399Z,6.82
2023-01-19T19:51:43.370Z,6.63
2023-01-19T19:54:13.019Z,6.20
2023-01-19T19:56:42.832Z,8.07
2023-01-19T19:59:14.593Z,6.72
2023-01-19T20:01:45.275Z,6.00
2023-01-19T20:04:19.937Z,6.80
2023-01-19T20:06:50.616Z,7.40
2023-01-19T20:09:20.295Z,8.93
2023-01-19T20:11:50.226Z,8.77
2023-01-19T20:14:22.508Z,9.20
2023-01-19T20:16:52.752Z,8.95
2023-01-19T20:19:22.453Z,7.80
2023-01-19T20:21:52.302Z,6.93
2023-01-19T20:24:22.768Z,8.38
2023-01-19T20:26:56.240Z,9.15
2023-01-19T20:31:57.970Z,7.70
2023-01-19T20:34:33.380Z,8.10
2023-01-19T20:37:06.122Z,8.02
2023-01-19T20:39:37.205Z,7.05
2023-01-19T20:42:11.227Z,7.97
2023-01-19T20:44:42.550Z,7.78
2023-01-19T20:47:12.287Z,6.68
2023-01-19T20:49:42.303Z,6.45
2023-01-19T20:52:12.268Z,6.10
2023-01-19T20:54:42.049Z,7.15
2023-01-19T20:57:11.865Z,6.43
2023-01-19T20:59:44.110Z,6.25
2023-01-19T21:02:15.119Z,6.07
2023-01-19T21:04:45.042Z,5.97
2023-01-19T21:07:14.653Z,6.50
2023-01-19T21:09:44.333Z,6.82
2023-01-19T21:12:16.089Z,6.85
2023-01-19T21:14:47.344Z,7.20
2023-01-19T21:17:17.065Z,6.60
2023-01-19T21:19:48.392Z,6.95
2023-01-19T21:22:18.221Z,7.00
2023-01-19T21:24:48.698Z,7.28
2023-01-19T21:27:18.402Z,8.00
2023-01-19T21:29:50.700Z,8.05
2023-01-19T21:32:20.415Z,8.30
2023-01-19T21:34:50.195Z,9.30
2023-01-19T21:37:19.931Z,10.38
2023-01-19T21:39:49.696Z,9.95
2023-01-19T21:42:19.382Z,8.98
2023-01-19T21:44:52.064Z,8.57
2023-01-19T21:47:21.784Z,8.45
2023-01-19T21:49:51.457Z,8.95
2023-01-19T21:52:21.321Z,7.88
2023-01-19T21:54:52.051Z,8.30
2023-01-19T21:57:21.703Z,8.60
2023-01-19T21:59:52.795Z,7.15
2023-01-19T22:02:37.572Z,6.53
2023-01-19T22:05:09.776Z,7.47
2023-01-19T22:07:39.600Z,7.25
2023-01-19T22:10:12.647Z,6.78
2023-01-19T22:12:42.516Z,6.35
2023-01-19T22:15:14.376Z,6.70
2023-01-19T22:17:45.419Z,6.35
2023-01-19T22:20:15.381Z,6.32
2023-01-19T22:22:45.154Z,6.70
2023-01-19T22:25:15.785Z,6.10
2023-01-19T22:27:45.528Z,7.03
2023-01-19T22:30:18.031Z,6.15
2023-01-19T22:32:48.387Z,5.87
2023-01-19T22:35:18.242Z,6.63
2023-01-19T22:37:47.951Z,6.28
2023-01-19T22:40:20.191Z,6.13
2023-01-19T22:42:50.912Z,6.93
2023-01-19T22:45:22.052Z,6.35
2023-01-19T22:47:51.842Z,6.60
2023-01-19T22:50:23.805Z,6.10
2023-01-19T22:52:57.909Z,7.35
2023-01-19T22:55:30.822Z,7.13
2023-01-19T22:58:02.540Z,5.33
2023-01-19T23:00:33.690Z,6.68
2023-01-19T23:03:03.393Z,6.63
2023-01-19T23:05:36.920Z,6.93
2023-01-19T23:08:07.292Z,7.72
2023-01-19T23:10:40.666Z,7.13
2023-01-19T23:15:41.686Z,12.02
2023-01-19T23:18:11.482Z,9.43
2023-01-19T23:20:41.314Z,7.50
2023-01-19T23:23:11.345Z,6.90
2023-01-19T23:25:42.547Z,5.65
2023-01-19T23:28:12.410Z,6.50
2023-01-19T23:30:46.787Z,6.80
2023-01-19T23:33:16.497Z,5.95
2023-01-19T23:35:46.203Z,5.68
2023-01-19T23:38:15.998Z,8.18
2023-01-19T23:40:45.697Z,10.30
2023-01-19T23:43:16.073Z,8.85
2023-01-19T23:45:47.119Z,7.03
2023-01-19T23:48:16.793Z,6.75
2023-01-19T23:50:46.503Z,8.30
2023-01-19T23:53:16.203Z,9.07
2023-01-19T23:55:45.892Z,9.10
2023-01-19T23:58:15.631Z,9.30
